sensor_id;sensor_type;location;lat;lon;timestamp;P1;durP1;ratioP1;P2;durP2;ratioP2
41677;SDS011;27364;49.026;8.712;2022-09-16T00:01:14;14.25;;;7.57;;
41677;SDS011;27364;49.026;8.712;2022-09-16T00:06:06;20.95;;;7.47;;
41677;SDS011;27364;49.026;8.712;2022-09-16T00:08:43;9.57;;;7.13;;
41677;SDS011;27364;49.026;8.712;2022-09-16T00:11:09;12.50;;;7.20;;
41677;SDS011;27364;49.026;8.712;2022-09-16T00:13:36;11.90;;;7.35;;
41677;SDS011;27364;49.026;8.712;2022-09-16T00:16:05;11.43;;;7.22;;
41677;SDS011;27364;49.026;8.712;2022-09-16T00:18:35;16.15;;;7.47;;
41677;SDS011;27364;49.026;8.712;2022-09-16T00:21:01;10.88;;;7.00;;
41677;SDS011;27364;49.026;8.712;2022-09-16T00:23:32;14.52;;;7.05;;
41677;SDS011;27364;49.026;8.712;2022-09-16T00:25:58;13.35;;;7.20;;
41677;SDS011;27364;49.026;8.712;2022-09-16T00:28:23;14.93;;;7.03;;
41677;SDS011;27364;49.026;8.712;2022-09-16T00:30:49;15.30;;;7.20;;
41677;SDS011;27364;49.026;8.712;2022-09-16T00:33:15;10.23;;;6.22;;
41677;SDS011;27364;49.026;8.712;2022-09-16T00:35:41;12.30;;;6.72;;
41677;SDS011;27364;49.026;8.712;2022-09-16T00:38:07;10.27;;;6.97;;
41677;SDS011;27364;49.026;8.712;2022-09-16T00:40:33;11.82;;;6.60;;
41677;SDS011;27364;49.026;8.712;2022-09-16T00:42:59;13.50;;;6.57;;
41677;SDS011;27364;49.026;8.712;2022-09-16T00:45:25;14.43;;;7.22;;
41677;SDS011;27364;49.026;8.712;2022-09-16T00:47:59;9.45;;;6.50;;
41677;SDS011;27364;49.026;8.712;2022-09-16T00:53:28;9.20;;;6.63;;
41677;SDS011;27364;49.026;8.712;2022-09-16T00:55:58;13.95;;;7.03;;
41677;SDS011;27364;49.026;8.712;2022-09-16T00:58:28;15.35;;;6.65;;
41677;SDS011;27364;49.026;8.712;2022-09-16T01:01:07;11.07;;;6.88;;
41677;SDS011;27364;49.026;8.712;2022-09-16T01:03:34;9.82;;;6.72;;
41677;SDS011;27364;49.026;8.712;2022-09-16T01:06:06;14.25;;;6.68;;
41677;SDS011;27364;49.026;8.712;2022-09-16T01:08:33;11.15;;;6.32;;
41677;SDS011;27364;49.026;8.712;2022-09-16T01:10:59;9.25;;;6.53;;
41677;SDS011;27364;49.026;8.712;2022-09-16T01:13:24;15.63;;;6.45;;
41677;SDS011;27364;49.026;8.712;2022-09-16T01:21:11;10.38;;;6.15;;
41677;SDS011;27364;49.026;8.712;2022-09-16T01:35:03;9.50;;;5.90;;
41677;SDS011;27364;49.026;8.712;2022-09-16T01:43:08;8.32;;;5.40;;
41677;SDS011;27364;49.026;8.712;2022-09-16T01:48:52;9.85;;;5.65;;
41677;SDS011;27364;49.026;8.712;2022-09-16T01:54:11;9.63;;;6.03;;
41677;SDS011;27364;49.026;8.712;2022-09-16T01:56:59;15.55;;;6.10;;
41677;SDS011;27364;49.026;8.712;2022-09-16T01:59:28;12.63;;;6.80;;
41677;SDS011;27364;49.026;8.712;2022-09-16T02:02:12;11.40;;;7.00;;
41677;SDS011;27364;49.026;8.712;2022-09-16T02:04:54;11.82;;;6.07;;
41677;SDS011;27364;49.026;8.712;2022-09-16T02:07:22;12.32;;;5.97;;
41677;SDS011;27364;49.026;8.712;2022-09-16T02:09:53;14.60;;;6.97;;
41677;SDS011;27364;49.026;8.712;2022-09-16T02:12:24;9.15;;;5.97;;
41677;SDS011;27364;49.026;8.712;2022-09-16T02:14:54;14.25;;;6.20;;
41677;SDS011;27364;49.026;8.712;2022-09-16T02:17:25;12.70;;;5.80;;
41677;SDS011;27364;49.026;8.712;2022-09-16T02:19:55;11.25;;;6.00;;
41677;SDS011;27364;49.026;8.712;2022-09-16T02:22:27;9.48;;;5.53;;
41677;SDS011;27364;49.026;8.712;2022-09-16T02:24:56;10.07;;;5.40;;
41677;SDS011;27364;49.026;8.712;2022-09-16T02:27:23;10.05;;;5.78;;
41677;SDS011;27364;49.026;8.712;2022-09-16T02:29:52;11.35;;;5.65;;
41677;SDS011;27364;49.026;8.712;2022-09-16T02:32:21;12.68;;;5.60;;
41677;SDS011;27364;49.026;8.712;2022-09-16T02:34:50;9.30;;;5.18;;
41677;SDS011;27364;49.026;8.712;2022-09-16T02:37:28;12.95;;;5.72;;
41677;SDS011;27364;49.026;8.712;2022-09-16T02:39:59;11.68;;;5.47;;
41677;SDS011;27364;49.026;8.712;2022-09-16T02:42:32;19.15;;;6.10;;
41677;SDS011;27364;49.026;8.712;2022-09-16T02:44:58;12.63;;;6.10;;
41677;SDS011;27364;49.026;8.712;2022-09-16T02:55:32;12.67;;;5.70;;
41677;SDS011;27364;49.026;8.712;2022-09-16T02:58:06;12.35;;;6.85;;
41677;SDS011;27364;49.026;8.712;2022-09-16T03:00:35;13.85;;;5.80;;
41677;SDS011;27364;49.026;8.712;2022-09-16T03:03:05;12.27;;;5.93;;
41677;SDS011;27364;49.026;8.712;2022-09-16T03:05:32;10.90;;;5.63;;
41677;SDS011;27364;49.026;8.712;2022-09-16T03:07:57;10.40;;;5.90;;
41677;SDS011;27364;49.026;8.712;2022-09-16T03:10:28;10.70;;;5.43;;
41677;SDS011;27364;49.026;8.712;2022-09-16T03:13:08;10.50;;;5.78;;
41677;SDS011;27364;49.026;8.712;2022-09-16T03:18:37;8.65;;;5.68;;
41677;SDS011;27364;49.026;8.712;2022-09-16T03:24:19;11.40;;;5.68;;
41677;SDS011;27364;49.026;8.712;2022-09-16T03:26:56;8.60;;;5.65;;
41677;SDS011;27364;49.026;8.712;2022-09-16T03:29:42;10.55;;;5.72;;
41677;SDS011;27364;49.026;8.712;2022-09-16T03:32:31;14.80;;;5.60;;
41677;SDS011;27364;49.026;8.712;2022-09-16T03:35:03;9.55;;;5.65;;
41677;SDS011;27364;49.026;8.712;2022-09-16T03:37:51;16.83;;;6.20;;
41677;SDS011;27364;49.026;8.712;2022-09-16T03:40:19;12.43;;;6.43;;
41677;SDS011;27364;49.026;8.712;2022-09-16T03:42:46;11.48;;;5.82;;
41677;SDS011;27364;49.026;8.712;2022-09-16T03:45:12;9.57;;;6.03;;
41677;SDS011;27364;49.026;8.712;2022-09-16T03:47:40;10.68;;;6.63;;
41677;SDS011;27364;49.026;8.712;2022-09-16T03:50:07;13.07;;;6.35;;
41677;SDS011;27364;49.026;8.712;2022-09-16T03:52:33;11.57;;;6.53;;
41677;SDS011;27364;49.026;8.712;2022-09-16T03:54:58;12.20;;;6.15;;
41677;SDS011;27364;49.026;8.712;2022-09-16T03:57:24;10.70;;;5.70;;
41677;SDS011;27364;49.026;8.712;2022-09-16T03:59:52;8.15;;;6.38;;
41677;SDS011;27364;49.026;8.712;2022-09-16T04:02:17;13.30;;;6.43;;
41677;SDS011;27364;49.026;8.712;2022-09-16T04:04:43;12.70;;;7.55;;
41677;SDS011;27364;49.026;8.712;2022-09-16T04:07:09;11.20;;;7.32;;
41677;SDS011;27364;49.026;8.712;2022-09-16T04:09:34;9.63;;;7.38;;
41677;SDS011;27364;49.026;8.712;2022-09-16T04:12:01;11.80;;;7.38;;
41677;SDS011;27364;49.026;8.712;2022-09-16T04:14:27;12.80;;;7.45;;
41677;SDS011;27364;49.026;8.712;2022-09-16T04:16:53;10.73;;;6.82;;
41677;SDS011;27364;49.026;8.712;2022-09-16T04:19:19;14.10;;;6.65;;
41677;SDS011;27364;49.026;8.712;2022-09-16T04:21:45;10.63;;;6.03;;
41677;SDS011;27364;49.026;8.712;2022-09-16T04:24:10;10.68;;;6.15;;
41677;SDS011;27364;49.026;8.712;2022-09-16T04:26:37;10.77;;;6.30;;
41677;SDS011;27364;49.026;8.712;2022-09-16T04:29:02;11.57;;;6.50;;
41677;SDS011;27364;49.026;8.712;2022-09-16T04:31:28;8.70;;;6.30;;
41677;SDS011;27364;49.026;8.712;2022-09-16T04:33:53;10.95;;;6.47;;
41677;SDS011;27364;49.026;8.712;2022-09-16T04:36:19;13.07;;;6.93;;
41677;SDS011;27364;49.026;8.712;2022-09-16T04:38:46;11.23;;;6.20;;
41677;SDS011;27364;49.026;8.712;2022-09-16T04:41:13;10.00;;;5.88;;
41677;SDS011;27364;49.026;8.712;2022-09-16T04:43:50;9.23;;;5.75;;
41677;SDS011;27364;49.026;8.712;2022-09-16T04:46:18;15.50;;;6.18;;
41677;SDS011;27364;49.026;8.712;2022-09-16T04:48:47;11.70;;;5.85;;
41677;SDS011;27364;49.026;8.712;2022-09-16T04:51:14;15.80;;;5.65;;
41677;SDS011;27364;49.026;8.712;2022-09-16T04:53:40;13.55;;;5.68;;
41677;SDS011;27364;49.026;8.712;2022-09-16T04:56:20;15.63;;;5.80;;
41677;SDS011;27364;49.026;8.712;2022-09-16T04:58:47;11.15;;;5.60;;
41677;SDS011;27364;49.026;8.712;2022-09-16T05:01:19;14.18;;;5.82;;
41677;SDS011;27364;49.026;8.712;2022-09-16T05:03:50;9.43;;;5.15;;
41677;SDS011;27364;49.026;8.712;2022-09-16T05:06:18;8.80;;;5.68;;
41677;SDS011;27364;49.026;8.712;2022-09-16T05:08:48;15.18;;;6.03;;
41677;SDS011;27364;49.026;8.712;2022-09-16T05:11:15;14.50;;;5.80;;
41677;SDS011;27364;49.026;8.712;2022-09-16T05:13:42;10.40;;;5.13;;
41677;SDS011;27364;49.026;8.712;2022-09-16T05:16:12;11.45;;;4.70;;
41677;SDS011;27364;49.026;8.712;2022-09-16T05:18:43;16.13;;;5.47;;
41677;SDS011;27364;49.026;8.712;2022-09-16T05:21:14;8.95;;;4.78;;
41677;SDS011;27364;49.026;8.712;2022-09-16T05:23:41;10.40;;;5.38;;
41677;SDS011;27364;49.026;8.712;2022-09-16T05:26:08;12.57;;;5.57;;
41677;SDS011;27364;49.026;8.712;2022-09-16T05:28:36;12.40;;;5.13;;
41677;SDS011;27364;49.026;8.712;2022-09-16T05:36:19;9.35;;;5.20;;
41677;SDS011;27364;49.026;8.712;2022-09-16T05:38:45;9.43;;;6.70;;
41677;SDS011;27364;49.026;8.712;2022-09-16T05:41:11;12.20;;;7.07;;
41677;SDS011;27364;49.026;8.712;2022-09-16T05:43:37;13.57;;;7.47;;
41677;SDS011;27364;49.026;8.712;2022-09-16T05:46:03;15.32;;;8.00;;
41677;SDS011;27364;49.026;8.712;2022-09-16T05:48:29;20.13;;;10.65;;
41677;SDS011;27364;49.026;8.712;2022-09-16T05:50:56;11.00;;;7.75;;
41677;SDS011;27364;49.026;8.712;2022-09-16T05:53:25;13.20;;;7.32;;
41677;SDS011;27364;49.026;8.712;2022-09-16T05:58:33;11.50;;;6.60;;
41677;SDS011;27364;49.026;8.712;2022-09-16T06:01:03;10.60;;;6.30;;
41677;SDS011;27364;49.026;8.712;2022-09-16T06:03:32;15.68;;;7.40;;
41677;SDS011;27364;49.026;8.712;2022-09-16T06:06:02;24.45;;;13.60;;
41677;SDS011;27364;49.026;8.712;2022-09-16T06:08:29;15.57;;;10.10;;
41677;SDS011;27364;49.026;8.712;2022-09-16T06:10:59;18.25;;;8.43;;
41677;SDS011;27364;49.026;8.712;2022-09-16T06:13:25;12.73;;;6.72;;
41677;SDS011;27364;49.026;8.712;2022-09-16T06:15:52;11.13;;;6.78;;
41677;SDS011;27364;49.026;8.712;2022-09-16T06:18:21;13.60;;;6.90;;
41677;SDS011;27364;49.026;8.712;2022-09-16T06:20:47;12.13;;;6.97;;
41677;SDS011;27364;49.026;8.712;2022-09-16T06:23:14;14.73;;;6.80;;
41677;SDS011;27364;49.026;8.712;2022-09-16T06:25:40;10.07;;;6.88;;
41677;SDS011;27364;49.026;8.712;2022-09-16T06:28:05;16.30;;;7.32;;
41677;SDS011;27364;49.026;8.712;2022-09-16T06:30:33;8.75;;;7.05;;
41677;SDS011;27364;49.026;8.712;2022-09-16T06:32:58;14.52;;;7.57;;
41677;SDS011;27364;49.026;8.712;2022-09-16T06:35:24;14.50;;;7.53;;
41677;SDS011;27364;49.026;8.712;2022-09-16T06:37:49;14.10;;;8.93;;
41677;SDS011;27364;49.026;8.712;2022-09-16T06:40:15;12.93;;;7.75;;
41677;SDS011;27364;49.026;8.712;2022-09-16T06:42:41;11.70;;;7.30;;
41677;SDS011;27364;49.026;8.712;2022-09-16T06:45:07;16.38;;;7.78;;
41677;SDS011;27364;49.026;8.712;2022-09-16T06:47:32;16.15;;;7.40;;
41677;SDS011;27364;49.026;8.712;2022-09-16T06:49:58;12.32;;;7.05;;
41677;SDS011;27364;49.026;8.712;2022-09-16T06:52:24;11.70;;;6.65;;
41677;SDS011;27364;49.026;8.712;2022-09-16T06:54:51;12.00;;;6.90;;
41677;SDS011;27364;49.026;8.712;2022-09-16T06:57:16;10.63;;;6.90;;
41677;SDS011;27364;49.026;8.712;2022-09-16T06:59:44;10.55;;;6.47;;
41677;SDS011;27364;49.026;8.712;2022-09-16T07:02:10;12.75;;;6.78;;
41677;SDS011;27364;49.026;8.712;2022-09-16T07:04:36;11.40;;;7.35;;
41677;SDS011;27364;49.026;8.712;2022-09-16T07:07:02;14.43;;;9.45;;
41677;SDS011;27364;49.026;8.712;2022-09-16T07:09:28;12.38;;;6.70;;
41677;SDS011;27364;49.026;8.712;2022-09-16T07:11:54;8.73;;;6.40;;
41677;SDS011;27364;49.026;8.712;2022-09-16T07:14:19;13.18;;;7.28;;
41677;SDS011;27364;49.026;8.712;2022-09-16T07:16:45;9.10;;;6.70;;
41677;SDS011;27364;49.026;8.712;2022-09-16T07:19:10;10.63;;;6.78;;
41677;SDS011;27364;49.026;8.712;2022-09-16T07:21:36;10.23;;;6.63;;
41677;SDS011;27364;49.026;8.712;2022-09-16T07:24:02;9.93;;;7.30;;
41677;SDS011;27364;49.026;8.712;2022-09-16T07:26:28;10.05;;;7.20;;
41677;SDS011;27364;49.026;8.712;2022-09-16T07:28:57;14.50;;;8.30;;
41677;SDS011;27364;49.026;8.712;2022-09-16T07:31:25;8.77;;;6.90;;
41677;SDS011;27364;49.026;8.712;2022-09-16T07:36:20;10.93;;;7.20;;
41677;SDS011;27364;49.026;8.712;2022-09-16T07:38:47;10.50;;;7.47;;
41677;SDS011;27364;49.026;8.712;2022-09-16T07:41:17;14.20;;;7.90;;
41677;SDS011;27364;49.026;8.712;2022-09-16T07:43:44;11.00;;;7.70;;
41677;SDS011;27364;49.026;8.712;2022-09-16T07:46:11;10.02;;;7.90;;
41677;SDS011;27364;49.026;8.712;2022-09-16T07:48:38;14.13;;;8.25;;
41677;SDS011;27364;49.026;8.712;2022-09-16T07:51:12;13.88;;;7.80;;
41677;SDS011;27364;49.026;8.712;2022-09-16T07:53:42;16.23;;;7.45;;
41677;SDS011;27364;49.026;8.712;2022-09-16T07:56:09;10.70;;;7.70;;
41677;SDS011;27364;49.026;8.712;2022-09-16T07:58:40;13.73;;;7.82;;
41677;SDS011;27364;49.026;8.712;2022-09-16T08:01:07;10.98;;;8.27;;
41677;SDS011;27364;49.026;8.712;2022-09-16T08:03:36;11.30;;;8.18;;
41677;SDS011;27364;49.026;8.712;2022-09-16T08:06:04;12.35;;;7.70;;
41677;SDS011;27364;49.026;8.712;2022-09-16T08:08:35;9.27;;;7.78;;
41677;SDS011;27364;49.026;8.712;2022-09-16T08:11:00;9.85;;;7.57;;
41677;SDS011;27364;49.026;8.712;2022-09-16T08:13:27;10.75;;;8.27;;
41677;SDS011;27364;49.026;8.712;2022-09-16T08:15:54;13.00;;;10.68;;
41677;SDS011;27364;49.026;8.712;2022-09-16T08:18:23;15.05;;;9.25;;
41677;SDS011;27364;49.026;8.712;2022-09-16T08:20:49;12.55;;;9.38;;
41677;SDS011;27364;49.026;8.712;2022-09-16T08:23:14;12.13;;;9.63;;
41677;SDS011;27364;49.026;8.712;2022-09-16T08:25:40;10.52;;;9.15;;
41677;SDS011;27364;49.026;8.712;2022-09-16T08:28:11;15.93;;;10.95;;
41677;SDS011;27364;49.026;8.712;2022-09-16T08:30:41;14.55;;;9.02;;
41677;SDS011;27364;49.026;8.712;2022-09-16T08:33:07;13.60;;;9.10;;
41677;SDS011;27364;49.026;8.712;2022-09-16T08:35:32;14.52;;;9.57;;
41677;SDS011;27364;49.026;8.712;2022-09-16T08:37:58;12.15;;;8.43;;
41677;SDS011;27364;49.026;8.712;2022-09-16T08:40:24;13.75;;;8.80;;
41677;SDS011;27364;49.026;8.712;2022-09-16T08:42:54;14.80;;;9.32;;
41677;SDS011;27364;49.026;8.712;2022-09-16T08:45:55;11.60;;;8.63;;
41677;SDS011;27364;49.026;8.712;2022-09-16T08:48:29;13.45;;;9.52;;
41677;SDS011;27364;49.026;8.712;2022-09-16T08:51:16;16.02;;;9.13;;
41677;SDS011;27364;49.026;8.712;2022-09-16T08:56:32;13.93;;;9.45;;
41677;SDS011;27364;49.026;8.712;2022-09-16T08:59:02;12.85;;;7.93;;
41677;SDS011;27364;49.026;8.712;2022-09-16T09:01:36;11.00;;;6.63;;
41677;SDS011;27364;49.026;8.712;2022-09-16T09:04:06;13.10;;;7.60;;
41677;SDS011;27364;49.026;8.712;2022-09-16T09:09:46;10.73;;;7.63;;
41677;SDS011;27364;49.026;8.712;2022-09-16T09:15:06;11.05;;;7.95;;
41677;SDS011;27364;49.026;8.712;2022-09-16T09:20:50;12.05;;;7.40;;
41677;SDS011;27364;49.026;8.712;2022-09-16T09:26:20;12.50;;;6.90;;
41677;SDS011;27364;49.026;8.712;2022-09-16T09:29:06;8.90;;;6.97;;
41677;SDS011;27364;49.026;8.712;2022-09-16T09:31:56;11.20;;;7.68;;
41677;SDS011;27364;49.026;8.712;2022-09-16T09:39:53;12.68;;;6.22;;
41677;SDS011;27364;49.026;8.712;2022-09-16T09:42:36;12.68;;;6.82;;
41677;SDS011;27364;49.026;8.712;2022-09-16T09:50:44;14.00;;;7.78;;
41677;SDS011;27364;49.026;8.712;2022-09-16T09:53:13;15.40;;;7.90;;
41677;SDS011;27364;49.026;8.712;2022-09-16T09:55:50;10.35;;;7.10;;
41677;SDS011;27364;49.026;8.712;2022-09-16T09:58:26;9.77;;;6.72;;
41677;SDS011;27364;49.026;8.712;2022-09-16T10:00:53;11.70;;;7.65;;
41677;SDS011;27364;49.026;8.712;2022-09-16T10:03:22;11.07;;;6.82;;
41677;SDS011;27364;49.026;8.712;2022-09-16T10:05:49;9.73;;;6.38;;
41677;SDS011;27364;49.026;8.712;2022-09-16T10:08:28;9.98;;;6.70;;
41677;SDS011;27364;49.026;8.712;2022-09-16T10:10:59;12.88;;;7.10;;
41677;SDS011;27364;49.026;8.712;2022-09-16T10:16:07;10.52;;;6.80;;
41677;SDS011;27364;49.026;8.712;2022-09-16T10:18:37;11.00;;;7.63;;
41677;SDS011;27364;49.026;8.712;2022-09-16T10:21:10;9.63;;;5.90;;
41677;SDS011;27364;49.026;8.712;2022-09-16T10:23:38;8.63;;;5.72;;
41677;SDS011;27364;49.026;8.712;2022-09-16T10:26:16;8.55;;;6.20;;
41677;SDS011;27364;49.026;8.712;2022-09-16T10:31:19;10.02;;;6.10;;
41677;SDS011;27364;49.026;8.712;2022-09-16T10:33:46;15.07;;;6.30;;
41677;SDS011;27364;49.026;8.712;2022-09-16T10:36:19;10.00;;;5.60;;
41677;SDS011;27364;49.026;8.712;2022-09-16T10:38:52;9.68;;;5.60;;
41677;SDS011;27364;49.026;8.712;2022-09-16T10:43:49;7.60;;;6.00;;
41677;SDS011;27364;49.026;8.712;2022-09-16T10:46:23;9.93;;;5.95;;
41677;SDS011;27364;49.026;8.712;2022-09-16T10:48:49;10.77;;;6.40;;
41677;SDS011;27364;49.026;8.712;2022-09-16T10:53:50;10.27;;;6.35;;
41677;SDS011;27364;49.026;8.712;2022-09-16T10:56:20;12.02;;;6.45;;
41677;SDS011;27364;49.026;8.712;2022-09-16T10:58:48;10.45;;;5.78;;
41677;SDS011;27364;49.026;8.712;2022-09-16T11:01:33;11.40;;;5.72;;
41677;SDS011;27364;49.026;8.712;2022-09-16T11:04:16;12.75;;;6.03;;
41677;SDS011;27364;49.026;8.712;2022-09-16T11:07:07;9.07;;;5.30;;
41677;SDS011;27364;49.026;8.712;2022-09-16T11:14:59;9.43;;;5.65;;
41677;SDS011;27364;49.026;8.712;2022-09-16T11:20:56;7.72;;;4.72;;
41677;SDS011;27364;49.026;8.712;2022-09-16T11:26:03;7.45;;;4.40;;
41677;SDS011;27364;49.026;8.712;2022-09-16T11:37:47;6.82;;;3.65;;
41677;SDS011;27364;49.026;8.712;2022-09-16T11:43:04;8.25;;;3.47;;
41677;SDS011;27364;49.026;8.712;2022-09-16T11:49:45;6.22;;;3.13;;
41677;SDS011;27364;49.026;8.712;2022-09-16T11:57:20;7.45;;;3.17;;
41677;SDS011;27364;49.026;8.712;2022-09-16T11:59:53;8.63;;;3.45;;
41677;SDS011;27364;49.026;8.712;2022-09-16T12:02:43;6.65;;;3.20;;
41677;SDS011;27364;49.026;8.712;2022-09-16T12:05:16;7.45;;;3.20;;
41677;SDS011;27364;49.026;8.712;2022-09-16T12:08:08;8.23;;;3.60;;
41677;SDS011;27364;49.026;8.712;2022-09-16T12:13:52;8.50;;;2.45;;
41677;SDS011;27364;49.026;8.712;2022-09-16T12:16:32;7.18;;;2.72;;
41677;SDS011;27364;49.026;8.712;2022-09-16T12:19:09;5.70;;;2.88;;
41677;SDS011;27364;49.026;8.712;2022-09-16T12:21:43;7.22;;;3.00;;
41677;SDS011;27364;49.026;8.712;2022-09-16T12:24:22;6.28;;;2.90;;
41677;SDS011;27364;49.026;8.712;2022-09-16T12:29:33;6.07;;;2.58;;
41677;SDS011;27364;49.026;8.712;2022-09-16T12:34:38;7.03;;;2.90;;
41677;SDS011;27364;49.026;8.712;2022-09-16T12:37:28;5.20;;;2.40;;
41677;SDS011;27364;49.026;8.712;2022-09-16T12:39:58;8.77;;;2.92;;
41677;SDS011;27364;49.026;8.712;2022-09-16T12:45:18;4.40;;;2.50;;
41677;SDS011;27364;49.026;8.712;2022-09-16T12:50:59;6.70;;;2.53;;
41677;SDS011;27364;49.026;8.712;2022-09-16T13:02:06;7.38;;;2.50;;
41677;SDS011;27364;49.026;8.712;2022-09-16T13:04:39;5.30;;;2.45;;
41677;SDS011;27364;49.026;8.712;2022-09-16T13:07:14;8.43;;;2.90;;
41677;SDS011;27364;49.026;8.712;2022-09-16T13:09:58;4.82;;;2.20;;
41677;SDS011;27364;49.026;8.712;2022-09-16T13:12:32;5.82;;;2.25;;
41677;SDS011;27364;49.026;8.712;2022-09-16T13:15:00;7.90;;;2.38;;
41677;SDS011;27364;49.026;8.712;2022-09-16T13:17:30;6.78;;;2.17;;
41677;SDS011;27364;49.026;8.712;2022-09-16T13:20:04;5.10;;;2.30;;
41677;SDS011;27364;49.026;8.712;2022-09-16T13:25:18;3.88;;;1.88;;
41677;SDS011;27364;49.026;8.712;2022-09-16T13:34:00;6.47;;;2.05;;
41677;SDS011;27364;49.026;8.712;2022-09-16T13:38:51;6.35;;;2.33;;
41677;SDS011;27364;49.026;8.712;2022-09-16T13:43:52;4.90;;;2.50;;
41677;SDS011;27364;49.026;8.712;2022-09-16T13:46:26;5.35;;;2.25;;
41677;SDS011;27364;49.026;8.712;2022-09-16T13:48:55;7.25;;;2.25;;
41677;SDS011;27364;49.026;8.712;2022-09-16T13:51:32;4.25;;;2.20;;
41677;SDS011;27364;49.026;8.712;2022-09-16T13:54:04;7.43;;;2.40;;
41677;SDS011;27364;49.026;8.712;2022-09-16T14:07:36;5.18;;;1.90;;
41677;SDS011;27364;49.026;8.712;2022-09-16T14:10:30;6.38;;;2.30;;
41677;SDS011;27364;49.026;8.712;2022-09-16T14:13:16;7.20;;;1.95;;
41677;SDS011;27364;49.026;8.712;2022-09-16T14:15:54;5.55;;;2.13;;
41677;SDS011;27364;49.026;8.712;2022-09-16T14:18:23;6.07;;;2.08;;
41677;SDS011;27364;49.026;8.712;2022-09-16T14:20:57;6.65;;;2.58;;
41677;SDS011;27364;49.026;8.712;2022-09-16T14:23:40;6.85;;;2.05;;
41677;SDS011;27364;49.026;8.712;2022-09-16T14:26:13;8.15;;;1.83;;
41677;SDS011;27364;49.026;8.712;2022-09-16T14:28:44;5.15;;;1.58;;
41677;SDS011;27364;49.026;8.712;2022-09-16T14:31:19;4.60;;;1.92;;
41677;SDS011;27364;49.026;8.712;2022-09-16T14:33:56;7.53;;;1.90;;
41677;SDS011;27364;49.026;8.712;2022-09-16T14:36:33;7.30;;;1.90;;
41677;SDS011;27364;49.026;8.712;2022-09-16T14:41:38;4.72;;;1.73;;
41677;SDS011;27364;49.026;8.712;2022-09-16T14:44:19;6.50;;;1.90;;
41677;SDS011;27364;49.026;8.712;2022-09-16T14:49:24;5.03;;;1.98;;
41677;SDS011;27364;49.026;8.712;2022-09-16T14:51:54;3.15;;;1.45;;
41677;SDS011;27364;49.026;8.712;2022-09-16T14:54:22;5.68;;;1.60;;
41677;SDS011;27364;49.026;8.712;2022-09-16T14:59:24;5.75;;;1.63;;
41677;SDS011;27364;49.026;8.712;2022-09-16T15:01:52;3.22;;;1.52;;
41677;SDS011;27364;49.026;8.712;2022-09-16T15:04:25;4.72;;;1.60;;
41677;SDS011;27364;49.026;8.712;2022-09-16T15:06:58;3.92;;;1.63;;
41677;SDS011;27364;49.026;8.712;2022-09-16T15:12:24;6.80;;;1.95;;
41677;SDS011;27364;49.026;8.712;2022-09-16T15:14:53;3.45;;;1.60;;
41677;SDS011;27364;49.026;8.712;2022-09-16T15:17:20;4.47;;;1.75;;
41677;SDS011;27364;49.026;8.712;2022-09-16T15:19:49;5.30;;;1.73;;
41677;SDS011;27364;49.026;8.712;2022-09-16T15:22:18;4.30;;;1.58;;
41677;SDS011;27364;49.026;8.712;2022-09-16T15:24:45;4.30;;;1.75;;
41677;SDS011;27364;49.026;8.712;2022-09-16T15:27:19;5.80;;;1.90;;
41677;SDS011;27364;49.026;8.712;2022-09-16T15:29:52;5.50;;;1.80;;
41677;SDS011;27364;49.026;8.712;2022-09-16T15:32:23;7.95;;;4.15;;
41677;SDS011;27364;49.026;8.712;2022-09-16T15:35:10;7.22;;;1.95;;
41677;SDS011;27364;49.026;8.712;2022-09-16T15:37:36;4.05;;;1.90;;
41677;SDS011;27364;49.026;8.712;2022-09-16T15:40:08;4.07;;;2.20;;
41677;SDS011;27364;49.026;8.712;2022-09-16T15:45:26;5.72;;;1.90;;
41677;SDS011;27364;49.026;8.712;2022-09-16T15:47:57;5.80;;;1.95;;
41677;SDS011;27364;49.026;8.712;2022-09-16T15:50:26;7.28;;;1.73;;
41677;SDS011;27364;49.026;8.712;2022-09-16T15:52:55;5.53;;;1.85;;
41677;SDS011;27364;49.026;8.712;2022-09-16T15:55:35;5.10;;;1.52;;
41677;SDS011;27364;49.026;8.712;2022-09-16T15:58:34;5.13;;;1.83;;
41677;SDS011;27364;49.026;8.712;2022-09-16T16:01:09;6.45;;;1.50;;
41677;SDS011;27364;49.026;8.712;2022-09-16T16:03:57;4.13;;;1.40;;
41677;SDS011;27364;49.026;8.712;2022-09-16T16:11:55;3.92;;;1.50;;
41677;SDS011;27364;49.026;8.712;2022-09-16T16:14:23;3.45;;;1.50;;
41677;SDS011;27364;49.026;8.712;2022-09-16T16:16:51;3.60;;;1.30;;
41677;SDS011;27364;49.026;8.712;2022-09-16T16:19:17;2.88;;;1.45;;
41677;SDS011;27364;49.026;8.712;2022-09-16T16:21:43;3.08;;;1.38;;
41677;SDS011;27364;49.026;8.712;2022-09-16T16:24:13;2.00;;;1.10;;
41677;SDS011;27364;49.026;8.712;2022-09-16T16:26:39;2.70;;;1.40;;
41677;SDS011;27364;49.026;8.712;2022-09-16T16:29:05;3.05;;;1.30;;
41677;SDS011;27364;49.026;8.712;2022-09-16T16:31:31;2.90;;;1.30;;
41677;SDS011;27364;49.026;8.712;2022-09-16T16:33:57;5.20;;;1.45;;
41677;SDS011;27364;49.026;8.712;2022-09-16T16:36:23;4.30;;;1.70;;
41677;SDS011;27364;49.026;8.712;2022-09-16T16:38:49;3.40;;;1.30;;
41677;SDS011;27364;49.026;8.712;2022-09-16T16:41:21;3.53;;;1.40;;
41677;SDS011;27364;49.026;8.712;2022-09-16T16:43:47;3.55;;;1.50;;
41677;SDS011;27364;49.026;8.712;2022-09-16T16:46:14;5.28;;;1.50;;
41677;SDS011;27364;49.026;8.712;2022-09-16T16:48:41;4.80;;;1.58;;
41677;SDS011;27364;49.026;8.712;2022-09-16T16:51:09;4.97;;;1.60;;
41677;SDS011;27364;49.026;8.712;2022-09-16T16:53:36;3.22;;;1.38;;
41677;SDS011;27364;49.026;8.712;2022-09-16T16:58:29;4.53;;;1.60;;
41677;SDS011;27364;49.026;8.712;2022-09-16T17:00:56;3.40;;;1.40;;
41677;SDS011;27364;49.026;8.712;2022-09-16T17:03:30;4.43;;;2.13;;
41677;SDS011;27364;49.026;8.712;2022-09-16T17:05:55;2.63;;;1.50;;
41677;SDS011;27364;49.026;8.712;2022-09-16T17:08:21;6.40;;;1.80;;
41677;SDS011;27364;49.026;8.712;2022-09-16T17:10:46;3.78;;;1.70;;
41677;SDS011;27364;49.026;8.712;2022-09-16T17:13:12;5.03;;;1.80;;
41677;SDS011;27364;49.026;8.712;2022-09-16T17:15:37;5.57;;;1.80;;
41677;SDS011;27364;49.026;8.712;2022-09-16T17:18:03;4.50;;;2.08;;
41677;SDS011;27364;49.026;8.712;2022-09-16T17:20:28;3.28;;;1.60;;
41677;SDS011;27364;49.026;8.712;2022-09-16T17:22:54;6.25;;;1.50;;
41677;SDS011;27364;49.026;8.712;2022-09-16T17:25:19;2.83;;;1.40;;
41677;SDS011;27364;49.026;8.712;2022-09-16T17:27:45;4.07;;;1.60;;
41677;SDS011;27364;49.026;8.712;2022-09-16T17:30:11;3.42;;;1.45;;
41677;SDS011;27364;49.026;8.712;2022-09-16T17:32:37;3.00;;;1.30;;
41677;SDS011;27364;49.026;8.712;2022-09-16T17:35:02;4.97;;;1.50;;
41677;SDS011;27364;49.026;8.712;2022-09-16T17:37:28;4.85;;;1.48;;
41677;SDS011;27364;49.026;8.712;2022-09-16T17:39:54;3.05;;;1.20;;
41677;SDS011;27364;49.026;8.712;2022-09-16T17:42:20;3.55;;;1.50;;
41677;SDS011;27364;49.026;8.712;2022-09-16T17:44:46;3.80;;;1.30;;
41677;SDS011;27364;49.026;8.712;2022-09-16T17:47:11;6.18;;;1.55;;
41677;SDS011;27364;49.026;8.712;2022-09-16T17:49:39;3.95;;;1.23;;
41677;SDS011;27364;49.026;8.712;2022-09-16T17:52:04;2.53;;;1.20;;
41677;SDS011;27364;49.026;8.712;2022-09-16T17:54:30;4.93;;;1.30;;
41677;SDS011;27364;49.026;8.712;2022-09-16T17:56:55;3.88;;;1.40;;
41677;SDS011;27364;49.026;8.712;2022-09-16T17:59:21;3.85;;;1.55;;
41677;SDS011;27364;49.026;8.712;2022-09-16T18:01:47;3.15;;;1.33;;
41677;SDS011;27364;49.026;8.712;2022-09-16T18:04:13;2.38;;;1.33;;
41677;SDS011;27364;49.026;8.712;2022-09-16T18:06:39;4.85;;;1.30;;
41677;SDS011;27364;49.026;8.712;2022-09-16T18:11:32;2.55;;;1.02;;
41677;SDS011;27364;49.026;8.712;2022-09-16T18:13:59;4.40;;;1.17;;
41677;SDS011;27364;49.026;8.712;2022-09-16T18:16:26;4.97;;;1.10;;